Time;durP1;ratioP1;P1;durP2;ratioP2;P2;SDS_P1;SDS_P2;PMS_P1;PMS_P2;Temp;Humidity;BMP_temperature;BMP_pressure;BME280_temperature;BME280_humidity;BME280_pressure;Samples;Min_cycle;Max_cycle;Signal;HPM_P1;HPM_P2
2023/06/13 00:00:57;;;;;;;6.38;4.10;;;15.50;99.90;;;;;;4991647;28;20038;-82
2023/06/13 00:03:23;;;;;;;5.75;4.40;;;15.40;99.90;;;;;;5006896;28;20073;-82
2023/06/13 00:05:51;;;;;;;6.65;4.05;;;15.40;99.90;;;;;;4992181;28;20489;-81
2023/06/13 00:08:21;;;;;;;5.47;4.45;;;15.40;99.90;;;;;;4991466;28;20041;-81
2023/06/13 00:10:51;;;;;;;5.90;4.40;;;15.50;99.90;;;;;;4993546;28;20041;-81
2023/06/13 00:13:18;;;;;;;6.30;4.88;;;15.50;99.90;;;;;;4992472;28;20046;-82
2023/06/13 00:15:50;;;;;;;7.60;4.35;;;15.60;99.90;;;;;;4990297;28;20043;-81
2023/06/13 00:18:20;;;;;;;5.45;3.53;;;15.60;99.90;;;;;;4995759;28;20026;-80
2023/06/13 00:20:47;;;;;;;6.00;3.63;;;16.20;99.90;;;;;;4977880;28;20042;-83
2023/06/13 00:23:16;;;;;;;5.45;3.03;;;16.80;99.90;;;;;;4995017;28;20491;-80
2023/06/13 00:25:43;;;;;;;6.72;3.38;;;17.20;99.90;;;;;;4992866;28;20061;-81
2023/06/13 00:28:10;;;;;;;5.63;3.90;;;17.50;99.90;;;;;;4991742;28;20034;-81
2023/06/13 00:30:36;;;;;;;5.20;3.30;;;17.50;99.90;;;;;;4992237;28;20026;-81
2023/06/13 00:33:04;;;;;;;4.35;2.97;;;17.50;99.90;;;;;;4990936;28;20041;-81
2023/06/13 00:35:31;;;;;;;5.15;4.22;;;17.40;99.90;;;;;;4989326;28;20034;-82
2023/06/13 00:37:57;;;;;;;6.00;3.65;;;17.30;99.90;;;;;;4992920;28;20050;-81
2023/06/13 00:40:25;;;;;;;9.63;3.47;;;17.10;99.90;;;;;;5005971;28;20049;-81
2023/06/13 00:42:53;;;;;;;5.95;4.18;;;17.00;99.90;;;;;;4992157;28;20444;-81
2023/06/13 00:45:26;;;;;;;6.53;3.90;;;17.00;99.90;;;;;;4990828;28;20045;-82
2023/06/13 00:48:05;;;;;;;4.47;3.35;;;16.90;99.90;;;;;;4990186;28;20497;-79
2023/06/13 00:50:40;;;;;;;5.50;3.45;;;16.80;99.90;;;;;;5007048;28;20053;-83
2023/06/13 00:53:16;;;;;;;7.60;4.00;;;16.80;99.90;;;;;;4997500;28;20030;-81
2023/06/13 00:55:42;;;;;;;8.07;3.97;;;16.70;99.90;;;;;;5005361;28;20062;-82
2023/06/13 00:58:10;;;;;;;6.18;3.40;;;16.90;99.90;;;;;;4992135;28;20041;-80
2023/06/13 01:00:40;;;;;;;6.20;3.22;;;17.20;99.90;;;;;;5002067;28;20133;-82
2023/06/13 01:03:09;;;;;;;4.15;3.17;;;17.30;99.90;;;;;;4989191;28;21072;-81
2023/06/13 01:05:38;;;;;;;3.58;2.53;;;17.30;99.90;;;;;;5003033;28;20050;-83
2023/06/13 01:08:10;;;;;;;5.82;2.95;;;17.30;99.90;;;;;;4997667;28;20057;-81
2023/06/13 01:10:40;;;;;;;3.90;2.42;;;17.20;99.90;;;;;;4990448;28;20133;-82
2023/06/13 01:13:29;;;;;;;3.50;2.23;;;17.10;99.90;;;;;;4991945;28;20031;-82
2023/06/13 01:16:12;;;;;;;4.85;3.00;;;17.10;99.90;;;;;;4988476;28;20300;-82
2023/06/13 01:18:42;;;;;;;6.07;3.00;;;17.00;99.90;;;;;;4989521;28;20042;-82
2023/06/13 01:21:10;;;;;;;4.55;2.88;;;17.00;99.90;;;;;;4997632;28;20057;-82
2023/06/13 01:23:57;;;;;;;3.78;2.33;;;17.00;99.90;;;;;;4999109;28;20046;-83
2023/06/13 01:26:52;;;;;;;3.95;2.22;;;17.00;99.90;;;;;;4988190;28;20476;-82
2023/06/13 01:29:18;;;;;;;4.07;2.85;;;16.90;99.90;;;;;;5006340;28;20046;-82
2023/06/13 01:31:48;;;;;;;4.82;2.47;;;16.80;99.90;;;;;;4989868;28;20026;-82
2023/06/13 01:34:16;;;;;;;3.70;2.45;;;16.60;99.90;;;;;;4988808;28;20050;-82
2023/06/13 01:36:42;;;;;;;3.28;2.55;;;16.50;99.90;;;;;;4988516;28;20403;-82
2023/06/13 01:39:09;;;;;;;3.75;2.55;;;16.30;99.90;;;;;;4992951;28;20387;-82
2023/06/13 01:41:36;;;;;;;5.38;3.30;;;16.20;99.90;;;;;;4991405;28;20042;-84
2023/06/13 01:44:05;;;;;;;8.25;3.30;;;16.00;99.90;;;;;;5006301;28;20046;-83
2023/06/13 01:46:41;;;;;;;8.13;3.75;;;15.80;99.90;;;;;;4991865;28;20487;-82
2023/06/13 01:49:23;;;;;;;6.43;3.72;;;15.50;99.90;;;;;;4997126;28;20040;-82
2023/06/13 01:52:03;;;;;;;6.88;3.85;;;15.40;99.90;;;;;;5002345;28;20047;-83
2023/06/13 01:54:35;;;;;;;5.65;3.63;;;15.20;99.90;;;;;;4985852;28;20046;-82
2023/06/13 01:57:05;;;;;;;4.80;3.40;;;15.20;99.90;;;;;;4997343;28;20046;-83
2023/06/13 01:59:33;;;;;;;5.85;3.22;;;15.00;99.90;;;;;;4992073;28;20042;-82
2023/06/13 02:02:00;;;;;;;7.53;4.00;;;15.00;99.90;;;;;;5003311;28;20397;-82
2023/06/13 02:04:27;;;;;;;5.22;2.97;;;14.90;99.90;;;;;;5003311;28;20050;-83
2023/06/13 02:06:53;;;;;;;5.38;3.80;;;15.00;99.90;;;;;;4983525;28;20050;-83
2023/06/13 02:09:20;;;;;;;4.28;2.97;;;14.90;99.90;;;;;;4974206;28;20030;-83
2023/06/13 02:11:46;;;;;;;5.95;3.70;;;14.80;99.90;;;;;;4982209;28;20034;-83
2023/06/13 02:14:12;;;;;;;3.30;2.83;;;14.70;99.90;;;;;;4980189;28;20037;-82
2023/06/13 02:16:39;;;;;;;6.18;2.85;;;14.70;99.90;;;;;;5005192;28;20511;-82
2023/06/13 02:19:08;;;;;;;5.30;2.85;;;14.80;99.90;;;;;;5005557;28;20049;-81
2023/06/13 02:21:34;;;;;;;4.68;2.72;;;14.70;99.90;;;;;;5007774;28;20035;-81
2023/06/13 02:24:00;;;;;;;5.55;3.67;;;14.80;99.90;;;;;;4990918;28;20033;-82
2023/06/13 02:26:28;;;;;;;6.35;3.03;;;14.80;99.90;;;;;;4990197;28;20031;-81
2023/06/13 02:28:58;;;;;;;6.72;3.85;;;14.70;99.90;;;;;;5005378;28;20038;-81
2023/06/13 02:31:24;;;;;;;4.32;2.63;;;14.70;99.90;;;;;;5005555;28;20039;-81
2023/06/13 02:33:51;;;;;;;4.70;2.67;;;14.90;99.90;;;;;;4993435;28;20038;-81
2023/06/13 02:36:17;;;;;;;5.10;2.65;;;15.00;99.90;;;;;;4988388;28;20051;-81
2023/06/13 02:38:43;;;;;;;5.53;3.92;;;15.00;99.90;;;;;;4988063;28;20038;-83
2023/06/13 02:41:11;;;;;;;3.90;3.10;;;15.00;99.90;;;;;;4988688;28;20375;-82
2023/06/13 02:43:37;;;;;;;5.22;3.47;;;14.90;99.90;;;;;;4987433;28;20097;-82
2023/06/13 02:46:03;;;;;;;4.95;2.85;;;14.80;99.90;;;;;;4990614;28;20057;-82
2023/06/13 02:48:29;;;;;;;7.10;3.65;;;14.70;99.90;;;;;;4971611;28;20043;-82
2023/06/13 02:50:57;;;;;;;4.93;2.80;;;14.70;99.90;;;;;;4988209;28;20037;-82
2023/06/13 02:53:23;;;;;;;4.90;2.55;;;14.60;99.90;;;;;;5008052;28;20050;-82
2023/06/13 02:55:52;;;;;;;4.82;3.05;;;14.60;99.90;;;;;;4995753;28;20034;-81
2023/06/13 02:58:20;;;;;;;4.18;3.03;;;14.70;99.90;;;;;;4977911;28;20053;-81
2023/06/13 03:00:48;;;;;;;4.35;2.70;;;14.70;99.90;;;;;;4993374;28;20093;-81
2023/06/13 03:03:16;;;;;;;6.35;3.03;;;14.80;99.90;;;;;;4972938;28;20046;-82
2023/06/13 03:05:44;;;;;;;4.78;2.95;;;14.90;99.90;;;;;;5012876;28;20042;-84
2023/06/13 03:08:18;;;;;;;5.07;3.15;;;15.00;99.90;;;;;;5009086;28;20468;-82
2023/06/13 03:10:48;;;;;;;8.43;3.33;;;15.00;99.90;;;;;;5006966;28;20049;-83
2023/06/13 03:13:18;;;;;;;4.47;2.95;;;14.90;99.90;;;;;;5005846;28;20046;-83
2023/06/13 03:15:48;;;;;;;3.53;2.22;;;14.70;99.90;;;;;;5007231;28;20475;-83
2023/06/13 03:18:15;;;;;;;3.50;2.53;;;14.70;99.90;;;;;;5010666;28;20042;-83
2023/06/13 03:20:48;;;;;;;4.30;2.90;;;14.70;99.90;;;;;;5008020;28;20038;-84
2023/06/13 03:23:17;;;;;;;5.97;2.88;;;14.70;99.90;;;;;;4998813;28;20046;-82
2023/06/13 03:25:44;;;;;;;4.88;3.15;;;14.70;99.90;;;;;;4997342;28;20069;-82
2023/06/13 03:28:11;;;;;;;5.93;2.80;;;14.60;99.90;;;;;;4990485;28;20039;-83
2023/06/13 03:30:38;;;;;;;4.25;2.78;;;14.60;99.90;;;;;;5009772;28;20042;-82
2023/06/13 03:33:06;;;;;;;5.60;3.67;;;14.50;99.90;;;;;;5006618;28;20042;-82
2023/06/13 03:35:35;;;;;;;6.25;3.45;;;14.40;99.90;;;;;;4997264;28;20494;-82
2023/06/13 03:38:03;;;;;;;3.53;2.67;;;14.40;99.90;;;;;;4995992;28;20065;-82
2023/06/13 03:40:32;;;;;;;6.57;2.75;;;14.40;99.90;;;;;;5008709;28;20042;-81
2023/06/13 03:42:59;;;;;;;5.97;3.17;;;14.40;99.90;;;;;;5005006;28;20047;-82
2023/06/13 03:45:25;;;;;;;5.15;3.35;;;14.40;99.90;;;;;;4988430;28;20045;-82
2023/06/13 03:47:51;;;;;;;5.57;3.90;;;14.30;99.90;;;;;;4977407;28;20041;-82
2023/06/13 03:50:18;;;;;;;6.97;2.95;;;14.30;99.90;;;;;;5008995;28;20049;-83
2023/06/13 03:52:44;;;;;;;6.75;3.20;;;14.20;99.90;;;;;;5006036;28;20407;-85
2023/06/13 03:55:11;;;;;;;5.22;3.08;;;14.20;99.90;;;;;;4976779;28;20875;-83
2023/06/13 03:57:37;;;;;;;4.18;3.00;;;14.30;99.90;;;;;;4999060;28;20043;-84
2023/06/13 04:00:05;;;;;;;5.55;2.85;;;14.40;99.90;;;;;;4995355;28;20041;-82
2023/06/13 04:02:38;;;;;;;7.20;3.22;;;14.40;99.90;;;;;;5006226;28;20049;-80
2023/06/13 04:05:06;;;;;;;3.65;2.60;;;14.50;99.90;;;;;;4995423;28;20049;-80
2023/06/13 04:07:33;;;;;;;6.93;2.67;;;14.50;99.90;;;;;;5013558;28;20038;-81
2023/06/13 04:10:01;;;;;;;6.00;3.97;;;14.60;99.90;;;;;;5005578;28;20042;-81
2023/06/13 04:12:28;;;;;;;6.72;3.67;;;14.70;99.90;;;;;;4998396;28;20034;-82
2023/06/13 04:14:55;;;;;;;4.90;3.40;;;14.70;99.90;;;;;;4989132;28;20074;-83
2023/06/13 04:17:21;;;;;;;5.40;3.30;;;14.70;99.90;;;;;;4997766;28;20042;-86
2023/06/13 04:19:48;;;;;;;4.63;3.28;;;15.20;99.90;;;;;;5006050;28;20097;-86
2023/06/13 04:22:16;;;;;;;4.32;3.08;;;16.00;99.90;;;;;;5009925;28;20057;-85
2023/06/13 04:24:43;;;;;;;6.47;3.30;;;16.70;99.90;;;;;;5009950;28;20046;-88
2023/06/13 04:27:13;;;;;;;5.90;2.90;;;17.20;99.90;;;;;;5000262;28;20464;-85
2023/06/13 04:29:43;;;;;;;5.28;3.28;;;17.70;99.90;;;;;;4987132;28;20046;-85
2023/06/13 04:32:13;;;;;;;5.13;3.08;;;17.90;99.90;;;;;;5004090;28;20395;-86
2023/06/13 04:34:44;;;;;;;8.68;3.72;;;18.10;99.90;;;;;;4996887;28;20361;-85
2023/06/13 04:37:11;;;;;;;5.28;3.20;;;18.50;99.90;;;;;;5012474;28;20055;-86
2023/06/13 04:39:38;;;;;;;4.70;2.75;;;18.80;99.90;;;;;;5012957;28;20042;-84
2023/06/13 04:42:05;;;;;;;4.22;2.90;;;19.10;99.90;;;;;;5003533;28;20221;-85
2023/06/13 04:44:33;;;;;;;3.97;2.60;;;19.60;99.90;;;;;;5006029;28;20026;-84
2023/06/13 04:47:01;;;;;;;5.38;3.33;;;19.80;99.90;;;;;;4986126;28;20057;-84
2023/06/13 04:49:27;;;;;;;5.05;2.80;;;20.10;99.90;;;;;;5013944;28;20430;-84
2023/06/13 04:51:55;;;;;;;6.72;3.17;;;19.90;99.90;;;;;;5006937;28;20120;-85
2023/06/13 04:54:25;;;;;;;4.72;2.75;;;19.60;99.90;;;;;;4993248;28;20027;-84
2023/06/13 04:56:51;;;;;;;7.97;2.40;;;19.80;99.90;;;;;;4985713;28;20051;-86
2023/06/13 04:59:19;;;;;;;5.70;2.97;;;20.50;99.90;;;;;;4981731;28;20046;-86
2023/06/13 05:01:47;;;;;;;5.38;2.70;;;21.00;99.90;;;;;;4992075;28;20046;-84
2023/06/13 05:04:14;;;;;;;6.13;3.30;;;21.80;99.90;;;;;;4990971;28;20042;-86
2023/06/13 05:06:42;;;;;;;3.60;2.47;;;22.30;99.90;;;;;;4991507;28;20045;-85
2023/06/13 05:09:08;;;;;;;3.33;2.22;;;22.30;99.90;;;;;;4991065;28;20038;-85
2023/06/13 05:11:35;;;;;;;4.68;2.42;;;22.30;99.90;;;;;;4990554;28;20494;-85
2023/06/13 05:14:01;;;;;;;7.60;3.13;;;22.50;99.60;;;;;;4996136;28;20042;-84
2023/06/13 05:16:29;;;;;;;5.25;2.45;;;22.50;97.60;;;;;;4995371;28;20039;-83
2023/06/13 05:19:00;;;;;;;4.53;1.65;;;22.70;92.40;;;;;;4994261;28;20431;-84
2023/06/13 05:21:31;;;;;;;4.78;2.22;;;22.80;96.00;;;;;;4998148;28;20464;-85
2023/06/13 05:23:58;;;;;;;4.18;2.10;;;23.00;93.40;;;;;;4992364;28;20038;-84
2023/06/13 05:26:24;;;;;;;7.07;2.13;;;23.20;91.60;;;;;;4994899;28;20038;-83
2023/06/13 05:28:50;;;;;;;3.50;2.50;;;23.00;87.40;;;;;;4992235;28;20048;-85
2023/06/13 05:31:17;;;;;;;3.53;2.38;;;23.10;92.90;;;;;;5000942;28;20049;-83
2023/06/13 05:33:44;;;;;;;7.30;2.05;;;23.40;84.60;;;;;;5011337;28;20072;-85
2023/06/13 05:36:11;;;;;;;4.55;2.13;;;23.70;84.20;;;;;;4993625;28;20050;-85
2023/06/13 05:38:37;;;;;;;2.88;2.30;;;23.80;71.80;;;;;;4992490;28;20054;-84
2023/06/13 05:41:03;;;;;;;4.35;2.35;;;23.50;71.50;;;;;;4992473;28;20865;-85
2023/06/13 05:43:31;;;;;;;4.30;2.17;;;23.50;73.10;;;;;;4975380;28;20042;-89
2023/06/13 05:45:57;;;;;;;5.00;2.17;;;23.80;73.40;;;;;;4983485;28;20034;-81
2023/06/13 05:48:23;;;;;;;4.95;2.60;;;23.70;69.80;;;;;;4989369;28;20030;-82
2023/06/13 05:50:49;;;;;;;4.03;2.60;;;23.70;65.90;;;;;;4990754;28;20406;-85
2023/06/13 05:53:15;;;;;;;3.92;2.42;;;23.70;63.70;;;;;;4991009;28;20041;-82
2023/06/13 05:55:41;;;;;;;3.63;1.90;;;23.70;64.20;;;;;;4988308;28;20134;-87
2023/06/13 05:58:08;;;;;;;6.53;2.03;;;24.20;62.20;;;;;;4991480;28;20388;-84
2023/06/13 06:00:34;;;;;;;3.35;1.92;;;24.40;52.70;;;;;;4988852;28;20050;-85
2023/06/13 06:03:00;;;;;;;4.07;2.10;;;24.80;49.40;;;;;;4977433;28;20043;-88
2023/06/13 06:05:29;;;;;;;3.17;2.03;;;25.20;48.10;;;;;;4988125;28;20043;-84
2023/06/13 06:07:55;;;;;;;3.67;2.00;;;25.40;36.60;;;;;;5004896;28;20037;-84
2023/06/13 06:10:21;;;;;;;3.33;2.00;;;25.00;35.90;;;;;;4989962;28;20047;-87
2023/06/13 06:12:47;;;;;;;3.53;1.83;;;25.20;39.10;;;;;;4989995;28;20391;-87
2023/06/13 06:15:13;;;;;;;4.32;1.88;;;25.30;34.90;;;;;;4987549;28;20045;-83
2023/06/13 06:17:40;;;;;;;4.28;1.40;;;25.30;30.10;;;;;;5007170;28;20051;-86
2023/06/13 06:20:06;;;;;;;2.67;1.75;;;25.70;37.80;;;;;;4991442;28;20129;-87
2023/06/13 06:22:33;;;;;;;3.42;1.90;;;25.60;25.60;;;;;;4996931;28;20379;-83
2023/06/13 06:24:59;;;;;;;3.15;1.83;;;25.50;24.40;;;;;;4987475;28;20050;-85
2023/06/13 06:27:26;;;;;;;3.97;2.00;;;24.90;27.70;;;;;;4990710;28;20372;-85
2023/06/13 06:29:52;;;;;;;4.43;2.40;;;24.40;30.40;;;;;;4991825;28;20038;-84
2023/06/13 06:32:18;;;;;;;3.17;1.73;;;24.50;29.20;;;;;;5009111;28;20071;-86
2023/06/13 06:34:45;;;;;;;4.18;1.83;;;24.40;30.00;;;;;;4997134;28;20033;-86
2023/06/13 06:37:13;;;;;;;4.15;2.25;;;24.90;32.50;;;;;;4993927;28;20050;-88
2023/06/13 06:39:39;;;;;;;5.00;2.63;;;25.70;23.90;;;;;;4996476;28;20486;-87
2023/06/13 06:42:05;;;;;;;7.00;2.05;;;25.20;20.20;;;;;;4995118;28;20250;-86
2023/06/13 06:44:41;;;;;;;2.70;1.90;;;25.40;21.00;;;;;;5002763;28;20218;-86
2023/06/13 06:47:07;;;;;;;3.70;2.50;;;25.50;17.40;;;;;;4994108;28;20037;-85
2023/06/13 06:49:33;;;;;;;4.55;1.60;;;25.40;18.30;;;;;;4999063;28;20029;-88
2023/06/13 06:52:00;;;;;;;2.50;1.80;;;24.90;22.40;;;;;;5010253;28;20046;-87
2023/06/13 06:54:26;;;;;;;5.95;2.63;;;25.00;26.30;;;;;;4990696;28;20039;-86
2023/06/13 06:56:52;;;;;;;4.18;1.73;;;25.20;20.60;;;;;;4993312;28;20038;-87
2023/06/13 06:59:18;;;;;;;4.80;1.90;;;25.50;17.40;;;;;;4996844;28;20041;-84
2023/06/13 07:01:45;;;;;;;3.90;1.98;;;25.10;16.10;;;;;;5010610;28;20041;-85
2023/06/13 07:04:11;;;;;;;3.58;1.83;;;25.40;19.20;;;;;;4994799;28;20038;-86
2023/06/13 07:06:37;;;;;;;4.80;1.83;;;25.80;22.00;;;;;;4995227;28;20046;-85
2023/06/13 07:09:03;;;;;;;3.03;2.00;;;25.50;14.50;;;;;;4993008;28;20034;-86
2023/06/13 07:11:29;;;;;;;3.53;1.92;;;26.00;16.10;;;;;;4999898;28;20399;-87
2023/06/13 07:13:56;;;;;;;3.05;2.28;;;25.60;16.60;;;;;;4995877;28;20034;-88
2023/06/13 07:16:22;;;;;;;3.40;1.98;;;25.60;14.80;;;;;;5006856;28;20046;-84
2023/06/13 07:18:50;;;;;;;4.50;2.03;;;25.00;17.80;;;;;;4999312;28;20038;-88
2023/06/13 07:21:16;;;;;;;5.25;1.95;;;24.70;19.20;;;;;;4998461;28;20038;-87
2023/06/13 07:23:42;;;;;;;4.72;2.50;;;24.70;21.10;;;;;;4995902;28;20392;-86
2023/06/13 07:26:09;;;;;;;2.90;1.95;;;24.70;15.50;;;;;;4997744;28;20256;-86
2023/06/13 07:28:35;;;;;;;4.63;1.83;;;24.80;18.50;;;;;;4998158;28;20041;-85
2023/06/13 07:31:02;;;;;;;2.75;1.70;;;24.50;19.40;;;;;;4994952;28;20033;-90
2023/06/13 07:33:28;;;;;;;4.55;2.47;;;24.50;18.20;;;;;;5002796;28;20031;-91
2023/06/13 07:35:56;;;;;;;3.90;2.30;;;24.60;19.70;;;;;;4994023;28;20060;-90
2023/06/13 07:38:24;;;;;;;3.63;2.20;;;24.90;19.90;;;;;;4997447;28;20504;-84
2023/06/13 07:40:50;;;;;;;3.33;1.95;;;25.20;18.10;;;;;;4994593;28;20472;-87
2023/06/13 07:43:17;;;;;;;4.25;2.15;;;25.60;21.30;;;;;;4997863;28;20483;-86
2023/06/13 07:45:43;;;;;;;3.70;2.15;;;25.00;15.40;;;;;;4999133;28;20037;-86
2023/06/13 07:48:09;;;;;;;3.85;2.50;;;25.50;16.10;;;;;;4991217;28;20049;-87
2023/06/13 07:50:36;;;;;;;3.42;1.98;;;25.80;14.70;;;;;;4998209;28;20034;-88
2023/06/13 07:53:02;;;;;;;3.67;2.40;;;26.70;9.20;;;;;;4988273;28;20043;-85
2023/06/13 07:55:29;;;;;;;6.78;2.40;;;25.80;9.90;;;;;;5002963;28;20050;-84
2023/06/13 07:57:55;;;;;;;10.93;2.13;;;26.00;11.40;;;;;;4993665;28;20030;-83
2023/06/13 08:00:21;;;;;;;3.08;1.92;;;26.60;9.40;;;;;;4995919;28;20037;-85
2023/06/13 08:02:47;;;;;;;4.90;2.10;;;26.90;7.80;;;;;;4994889;28;20030;-88
2023/06/13 08:05:15;;;;;;;4.43;2.33;;;27.10;3.10;;;;;;4995240;28;20416;-85
2023/06/13 08:07:41;;;;;;;5.70;2.05;;;26.50;5.30;;;;;;4997401;28;20365;-88
2023/06/13 08:10:08;;;;;;;3.50;1.73;;;25.60;9.70;;;;;;4987097;28;20384;-88
2023/06/13 08:12:34;;;;;;;4.55;2.40;;;24.90;17.90;;;;;;5006056;28;20050;-85
2023/06/13 08:15:01;;;;;;;4.82;2.10;;;25.20;17.00;;;;;;5008170;28;20046;-88
2023/06/13 08:17:27;;;;;;;3.95;2.35;;;26.20;12.00;;;;;;4996714;28;20030;-85
2023/06/13 08:19:54;;;;;;;3.30;1.92;;;25.80;8.80;;;;;;4996535;28;20030;-84
2023/06/13 08:22:21;;;;;;;6.53;2.53;;;25.60;10.70;;;;;;4993042;28;20387;-82
2023/06/13 08:24:47;;;;;;;3.30;2.22;;;25.00;9.80;;;;;;4988454;28;20050;-84
2023/06/13 08:27:17;;;;;;;8.80;2.55;;;25.20;10.20;;;;;;4997076;28;20152;-86
2023/06/13 08:29:43;;;;;;;;;;;25.60;9.60;;;;;;5000363;28;20030;-87
2023/06/13 08:32:09;;;;;;;2.92;1.90;;;25.90;7.60;;;;;;5005929;28;19909;-92
2023/06/13 08:34:36;;;;;;;3.15;1.98;;;25.60;7.80;;;;;;4997474;28;20462;-90
2023/06/13 08:37:02;;;;;;;3.60;1.95;;;25.80;13.50;;;;;;4992237;28;20407;-88
2023/06/13 08:39:28;;;;;;;4.60;2.15;;;26.50;2.90;;;;;;4991924;28;20046;-85
2023/06/13 08:41:55;;;;;;;4.70;2.25;;;26.30;3.60;;;;;;5006711;28;20050;-92
2023/06/13 08:44:22;;;;;;;4.45;2.03;;;25.90;2.80;;;;;;4991589;28;20035;-83
2023/06/13 08:46:48;;;;;;;4.25;2.67;;;25.80;3.50;;;;;;4988419;28;20041;-86
2023/06/13 08:49:15;;;;;;;2.97;2.08;;;25.70;5.20;;;;;;4996093;28;20034;-84
2023/06/13 08:51:44;;;;;;;4.72;2.47;;;26.80;2.80;;;;;;4992595;28;20468;-83
2023/06/13 08:54:13;;;;;;;3.75;2.40;;;26.50;1.00;;;;;;5007452;28;20038;-83
2023/06/13 08:56:43;;;;;;;4.20;2.10;;;26.60;1.00;;;;;;4992099;28;20057;-84
2023/06/13 08:59:14;;;;;;;;;;;26.80;1.00;;;;;;4994564;28;20459;-84
2023/06/13 09:01:44;;;;;;;4.90;2.70;;;26.40;1.00;;;;;;4996620;28;19910;-83
2023/06/13 09:04:11;;;;;;;4.28;2.22;;;26.40;1.40;;;;;;4989718;28;20034;-87
2023/06/13 09:06:38;;;;;;;6.93;2.20;;;26.30;1.00;;;;;;4987380;28;20045;-84
2023/06/13 09:09:07;;;;;;;3.97;2.20;;;26.60;2.40;;;;;;4975844;28;20038;-85
2023/06/13 09:11:35;;;;;;;3.17;1.90;;;26.80;1.30;;;;;;4984246;28;20038;-87
2023/06/13 09:14:03;;;;;;;3.60;2.38;;;25.80;6.50;;;;;;4990509;28;20038;-85
2023/06/13 09:16:31;;;;;;;6.72;2.78;;;27.20;1.00;;;;;;4996001;28;20061;-87
2023/06/13 09:18:57;;;;;;;2.47;2.10;;;26.90;1.00;;;;;;4991912;28;20046;-87
2023/06/13 09:21:24;;;;;;;3.72;2.05;;;26.30;1.00;;;;;;5009852;28;20052;-85
2023/06/13 09:23:54;;;;;;;3.72;2.10;;;26.10;2.50;;;;;;4995311;28;20448;-83
2023/06/13 09:26:20;;;;;;;3.53;2.00;;;26.30;1.00;;;;;;4979408;28;20038;-86
2023/06/13 09:28:47;;;;;;;4.15;2.08;;;26.10;1.00;;;;;;4990982;28;20031;-82
2023/06/13 09:31:14;;;;;;;3.80;2.53;;;26.00;2.30;;;;;;4990800;28;20286;-81
2023/06/13 09:33:43;;;;;;;5.50;2.05;;;26.30;1.00;;;;;;4993008;28;20034;-89
2023/06/13 09:36:12;;;;;;;2.85;1.67;;;26.70;1.00;;;;;;4990453;28;20057;-87
2023/06/13 09:38:41;;;;;;;3.77;2.43;;;27.50;1.00;;;;;;4995065;28;20041;-85
2023/06/13 09:41:09;;;;;;;4.95;2.35;;;26.50;1.00;;;;;;4990751;28;20038;-85
2023/06/13 09:43:38;;;;;;;4.73;2.50;;;25.70;1.60;;;;;;5008562;28;20045;-83
2023/06/13 09:46:04;;;;;;;7.72;2.65;;;25.20;4.60;;;;;;5005372;28;20476;-90
2023/06/13 09:48:31;;;;;;;3.45;2.22;;;25.30;9.90;;;;;;4996995;28;20037;-83
2023/06/13 09:50:57;;;;;;;5.82;2.53;;;25.30;9.00;;;;;;5006400;28;20083;-82
2023/06/13 09:53:25;;;;;;;4.18;2.20;;;25.30;9.40;;;;;;5004053;28;20038;-86
2023/06/13 09:55:52;;;;;;;5.00;2.65;;;25.00;9.60;;;;;;4993625;28;20046;-86
2023/06/13 09:58:18;;;;;;;3.90;2.25;;;25.30;7.70;;;;;;4992839;28;20035;-85
2023/06/13 10:00:48;;;;;;;4.05;2.08;;;25.60;5.50;;;;;;5002582;28;20030;-84
2023/06/13 10:03:18;;;;;;;6.70;2.25;;;26.10;1.80;;;;;;5006826;28;20038;-83
2023/06/13 10:05:45;;;;;;;3.42;2.17;;;26.80;1.00;;;;;;4995326;28;20038;-86
2023/06/13 10:08:11;;;;;;;6.28;2.30;;;26.60;1.00;;;;;;4993702;28;20459;-80
2023/06/13 10:10:37;;;;;;;3.22;1.98;;;26.80;1.00;;;;;;4992503;28;20046;-83
2023/06/13 10:13:10;;;;;;;5.07;2.30;;;27.20;1.00;;;;;;4994282;28;20034;-85
2023/06/13 10:15:51;;;;;;;3.85;2.05;;;27.20;1.00;;;;;;4989652;28;20045;-82
2023/06/13 10:18:25;;;;;;;3.28;2.25;;;26.20;1.00;;;;;;4979613;28;20046;-85
2023/06/13 10:20:53;;;;;;;5.25;1.98;;;25.60;3.30;;;;;;4990717;28;20041;-84
2023/06/13 10:23:21;;;;;;;4.70;2.25;;;25.80;3.70;;;;;;4993478;28;20050;-88
2023/06/13 10:25:54;;;;;;;5.28;3.00;;;26.10;4.30;;;;;;5003906;28;20038;-83
2023/06/13 10:28:44;;;;;;;7.38;2.88;;;25.60;5.10;;;;;;4998830;28;20034;-84
2023/06/13 10:31:26;;;;;;;4.95;2.45;;;25.60;7.10;;;;;;5006177;28;20038;-82
2023/06/13 10:34:30;;;;;;;3.65;2.33;;;25.40;4.30;;;;;;5004367;28;20061;-87
2023/06/13 10:37:20;;;;;;;5.20;2.75;;;25.50;7.50;;;;;;5005783;28;20055;-84
2023/06/13 10:39:56;;;;;;;4.60;3.38;;;25.30;2.30;;;;;;5005632;28;20030;-86
2023/06/13 10:42:53;;;;;;;4.97;2.47;;;24.90;2.10;;;;;;4996253;28;20467;-83
2023/06/13 10:45:25;;;;;;;3.10;2.10;;;25.10;4.00;;;;;;4991555;28;20046;-86
2023/06/13 10:47:51;;;;;;;5.03;2.60;;;25.60;2.00;;;;;;4996492;28;20071;-86
2023/06/13 10:50:18;;;;;;;4.35;2.95;;;25.10;4.10;;;;;;4996168;28;20448;-85
2023/06/13 10:52:48;;;;;;;4.22;2.35;;;25.00;8.20;;;;;;5005270;28;20042;-89
2023/06/13 10:55:25;;;;;;;4.93;2.25;;;25.10;9.80;;;;;;4996297;28;20393;-84
2023/06/13 10:57:56;;;;;;;4.47;2.47;;;25.10;10.60;;;;;;5001869;28;20049;-87
2023/06/13 11:00:30;;;;;;;4.30;2.40;;;24.90;9.00;;;;;;4988884;28;20038;-84
2023/06/13 11:03:01;;;;;;;6.15;2.15;;;25.10;9.00;;;;;;4998786;28;20396;-89
2023/06/13 11:05:27;;;;;;;5.78;2.55;;;25.30;8.80;;;;;;4991084;28;20045;-80
2023/06/13 11:07:55;;;;;;;5.40;3.03;;;25.20;8.10;;;;;;4988536;28;20035;-84
2023/06/13 11:10:23;;;;;;;4.20;2.60;;;25.00;10.90;;;;;;4976923;28;20507;-87
2023/06/13 11:12:53;;;;;;;5.20;3.03;;;25.10;9.50;;;;;;4992792;28;20483;-86
2023/06/13 11:15:24;;;;;;;3.95;2.38;;;24.90;6.50;;;;;;4994435;28;20042;-86
2023/06/13 11:18:20;;;;;;;3.88;2.00;;;25.20;6.80;;;;;;4997096;28;20384;-89
2023/06/13 11:20:54;;;;;;;4.45;2.65;;;25.20;6.20;;;;;;4992309;28;20475;-86
2023/06/13 11:23:33;;;;;;;7.72;3.10;;;25.50;4.60;;;;;;4992659;28;20053;-84
2023/06/13 11:26:00;;;;;;;5.75;2.63;;;25.40;6.00;;;;;;4992271;28;20420;-86
2023/06/13 11:28:26;;;;;;;4.57;2.15;;;25.20;9.70;;;;;;5009855;28;20034;-85
2023/06/13 11:30:53;;;;;;;3.17;2.28;;;25.60;12.10;;;;;;4994449;28;20034;-87
2023/06/13 11:33:19;;;;;;;5.25;2.58;;;25.70;9.60;;;;;;4999462;28;20358;-87
2023/06/13 11:35:49;;;;;;;4.93;2.80;;;25.40;7.70;;;;;;4998806;28;20038;-84
2023/06/13 11:38:21;;;;;;;3.47;2.55;;;25.30;6.30;;;;;;5000762;28;20051;-89
2023/06/13 11:40:51;;;;;;;2.85;2.40;;;25.00;9.10;;;;;;4994678;28;20039;-87
2023/06/13 11:43:17;;;;;;;5.22;2.28;;;25.20;5.20;;;;;;4992869;28;20034;-89
2023/06/13 11:45:45;;;;;;;5.10;2.55;;;25.40;3.60;;;;;;4996136;28;20408;-85
2023/06/13 11:48:17;;;;;;;4.75;2.65;;;25.90;4.50;;;;;;5007289;28;20475;-84
2023/06/13 11:50:44;;;;;;;6.65;2.95;;;26.10;1.00;;;;;;5002393;28;20030;-87
2023/06/13 11:53:11;;;;;;;4.18;2.30;;;26.00;1.00;;;;;;4992882;28;20042;-81
2023/06/13 11:55:37;;;;;;;6.35;2.45;;;25.90;1.00;;;;;;4995165;28;20030;-90
2023/06/13 11:58:03;;;;;;;3.63;2.35;;;25.70;1.60;;;;;;4992640;28;20038;-86
2023/06/13 12:00:53;;;;;;;5.40;2.25;;;25.80;1.40;;;;;;4998626;28;20054;-81
2023/06/13 12:03:22;;;;;;;3.55;2.40;;;26.10;1.00;;;;;;4989133;28;20050;-88
2023/06/13 12:05:48;;;;;;;10.85;2.97;;;26.00;1.00;;;;;;5012581;28;20081;-86
2023/06/13 12:08:16;;;;;;;4.93;2.38;;;26.20;1.00;;;;;;4997401;28;20058;-85
2023/06/13 12:10:46;;;;;;;7.03;2.70;;;26.40;1.00;;;;;;4991085;28;20031;-87
2023/06/13 12:13:15;;;;;;;5.45;2.78;;;26.50;1.00;;;;;;4988852;28;20046;-88
2023/06/13 12:15:41;;;;;;;5.23;2.80;;;26.60;1.00;;;;;;5008394;28;20043;-88
2023/06/13 12:18:08;;;;;;;3.53;2.50;;;26.20;1.30;;;;;;4992370;28;20062;-84
2023/06/13 12:20:48;;;;;;;3.90;2.17;;;26.30;1.00;;;;;;5017689;28;20037;-83
2023/06/13 12:23:15;;;;;;;5.90;2.97;;;26.00;1.00;;;;;;5003468;28;20042;-86
2023/06/13 12:25:41;;;;;;;4.65;2.80;;;26.10;1.00;;;;;;5008569;28;20049;-86
2023/06/13 12:28:12;;;;;;;2.95;2.20;;;26.30;1.00;;;;;;4990198;28;20120;-89
2023/06/13 12:30:43;;;;;;;5.88;2.08;;;25.90;1.00;;;;;;4990786;28;20042;-85
2023/06/13 12:33:16;;;;;;;5.22;3.35;;;26.30;1.00;;;;;;4993731;28;20415;-87
2023/06/13 12:35:54;;;;;;;4.18;2.47;;;26.30;1.00;;;;;;4995439;28;20416;-85
2023/06/13 12:38:28;;;;;;;5.97;3.08;;;26.30;1.00;;;;;;5008145;28;20053;-82
2023/06/13 12:40:55;;;;;;;4.07;2.42;;;26.50;1.00;;;;;;5007414;28;20047;-86
2023/06/13 12:43:29;;;;;;;4.82;2.58;;;26.40;1.00;;;;;;5008504;28;20297;-85
2023/06/13 12:45:57;;;;;;;4.35;2.45;;;26.60;1.00;;;;;;4990832;28;20034;-79
2023/06/13 12:48:23;;;;;;;4.50;2.45;;;26.60;1.00;;;;;;5000795;28;20041;-80
2023/06/13 12:50:50;;;;;;;3.17;2.00;;;26.80;1.00;;;;;;5006268;28;20034;-88
2023/06/13 12:53:21;;;;;;;7.03;2.42;;;26.50;1.00;;;;;;4996835;28;20046;-83
2023/06/13 12:55:49;;;;;;;4.30;2.08;;;26.60;1.00;;;;;;4993651;28;20449;-90
2023/06/13 12:58:32;;;;;;;7.15;2.50;;;26.40;1.00;;;;;;4985424;28;20054;-83